• Join FlightAware (Why Join?)
  • Login
  • US Flag 
09:22AM EDT


 

Airport Tracker/Info


-or-


 

Live Flight TrackerFlight Track Log ✈ C-FTJP ✈ 14-Mar-2012 ✈ CYOW - CYVR

Flight Track Log - Related Links

Times and Time Zones

All times are in EDT time to prevent confusion due to time zone crossing. See the C-FTJP flight status page for this flight to view local times or setup timezone preferences in your user account.

Time Position Orientation Groundspeed Altitude Reporting Facility
EDT Latitude Longitude Course Direction KTS MPH feet Rate Location/Type
05:47PM 45.3304 -75.7136 145° Southeast  Level FlightAware Approximate
05:48PM 45.3167 -75.7000 300° West 160 184 1,900  Level Montreal Center
05:49PM 45.3500 -75.7833 325° Northwest 190 219 3,200 2,040 Climbing Montreal Center
05:50PM 45.4167 -75.8500 295° West 240 276 6,000 2,760 Climbing Montreal Center
05:51PM 45.4500 -75.9500 270° West 250 288 8,800 2,400 Climbing Montreal Center
05:52PM 45.4500 -76.0333 280° West 260 299 10,900 1,500 Climbing Montreal Center
05:53PM 45.4667 -76.1667 290° West 310 357 11,800 1,440 Climbing Montreal Center
05:54PM 45.5000 -76.3000 270° West 360 414 13,800 2,400 Climbing Montreal Center
05:55PM 45.5000 -76.4500 282° West 350 403 16,600 2,100 Climbing Montreal Center
05:56PM 45.5167 -76.5667 290° West 350 403 18,000 1,500 Climbing Montreal Center
05:56PM 45.5333 -76.6333 280° West 360 414 19,000 1,620 Climbing Toronto Center
05:57PM 45.5500 -76.7667 278° West 370 426 20,600 1,560 Climbing Toronto Center
05:58PM 45.5667 -76.9333 279° West 380 437 22,200 1,500 Climbing Toronto Center
05:59PM 45.5833 -77.0833 280° West 390 449 23,600 1,200 Climbing Toronto Center
06:00PM 45.6000 -77.2167 286° West 390 449 24,600 1,020 Climbing Toronto Center
06:01PM 45.6333 -77.3833 278° West 400 460 25,700 900 Climbing Toronto Center
06:02PM 45.6500 -77.5500 278° West 410 472 26,500 780 Climbing Toronto Center
06:03PM 45.6667 -77.7167 279° West 420 483 27,300 780 Climbing Toronto Center
06:04PM 45.6833 -77.8667 285° West 420 483 28,100 1,080 Climbing Toronto Center
06:05PM 45.7167 -78.0500 279° West 420 483 29,500 1,080 Climbing Toronto Center
06:06PM 45.7333 -78.2000 286° West 420 483 30,300 900 Climbing Toronto Center
06:07PM 45.7667 -78.3667 286° West 420 483 31,300 900 Climbing Toronto Center
06:08PM 45.8000 -78.5333 278° West 410 472 32,200 780 Climbing Toronto Center
06:09PM 45.8167 -78.7000 278° West 410 472 32,900 660 Climbing Toronto Center
06:10PM 45.8333 -78.8667 288° West 410 472 33,600 540 Climbing Toronto Center
06:11PM 45.8667 -79.0167 278° West 410 472 34,000 180 Climbing Toronto Center
06:12PM 45.8833 -79.1833 278° West 410 472 34,000  Level Toronto Center
06:13PM 45.9000 -79.3500 286° West 420 483 34,000  Level Toronto Center
06:14PM 45.9333 -79.5167 280° West 410 472 34,000  Level Toronto Center
06:15PM 45.9500 -79.6500 277° West 410 472 34,000  Level Toronto Center
06:16PM 45.9667 -79.8500 279° West 420 483 34,000  Level Toronto Center
06:17PM 45.9833 -80.0000 286° West 410 472 34,000  Level Toronto Center
06:18PM 46.0167 -80.1667 278° West 410 472 34,000  Level Toronto Center
06:19PM 46.0333 -80.3333 290° West 410 472 34,000  Level Toronto Center
06:20PM 46.0667 -80.4667 278° West 410 472 34,000  Level Toronto Center
06:21PM 46.0833 -80.6333 285° West 410 472 34,000  Level Toronto Center
06:22PM 46.1167 -80.8167 270° West 410 472 34,000  Level Toronto Center
06:23PM 46.1167 -80.9500 284° West 420 483 34,000  Level Toronto Center
06:24PM 46.1500 -81.1500 279° West 420 483 34,000  Level Toronto Center
06:25PM 46.1667 -81.3000 278° West 420 483 34,000  Level Toronto Center
06:26PM 46.1833 -81.4667 286° West 420 483 34,000  Level Toronto Center
06:27PM 46.2167 -81.6333 278° West 420 483 34,000  Level Toronto Center
06:28PM 46.2333 -81.8000 288° West 420 483 34,000  Level Toronto Center
06:29PM 46.2667 -81.9500 270° West 420 483 34,000  Level Toronto Center
06:30PM 46.2667 -82.1167 286° West 420 483 34,000  Level Toronto Center
06:31PM 46.3000 -82.2833 278° West 420 483 34,000  Level Toronto Center
06:32PM 46.3167 -82.4500 285° West 420 483 34,000  Level Toronto Center
06:33PM 46.3500 -82.6333 270° West 420 483 34,000  Level Toronto Center
06:34PM 46.3500 -82.8000 288° West 420 483 34,000  Level Toronto Center
06:35PM 46.3833 -82.9500 278° West 420 483 34,000  Level Toronto Center
06:36PM 46.4000 -83.1333 288° West 420 483 34,000  Level Toronto Center
06:37PM 46.4333 -83.2833 270° West 420 483 34,000  Level Toronto Center
06:38PM 46.4333 -83.4833 280° West 420 483 34,000  Level Toronto Center
06:39PM 46.4500 -83.6167 278° West 420 483 34,000  Level Toronto Center
06:40PM 46.4667 -83.8000 278° West 420 483 34,000  Level Toronto Center
06:41PM 46.4833 -83.9667 286° West 420 483 34,000  Level Toronto Center
06:42PM 46.5167 -84.1333 270° West 420 483 34,000  Level Toronto Center
06:43PM 46.5167 -84.3167 286° West 420 483 34,000  Level Toronto Center
06:44PM 46.5500 -84.4833 279° West 420 483 34,000  Level Toronto Center
06:45PM 46.5667 -84.6333 278° West 420 483 34,000  Level Toronto Center
06:46PM 46.5833 -84.8000 279° West 400 460 34,000  Level Toronto Center
06:47PM 46.6000 -84.9500 278° West 400 460 34,000  Level Toronto Center
06:48PM 46.6167 -85.1167 278° West 410 472 34,000  Level Toronto Center
06:49PM 46.6333 -85.2833 270° West 410 472 34,000  Level Toronto Center
06:50PM 46.6333 -85.4333 285° West 410 472 34,000  Level Toronto Center
06:51PM 46.6667 -85.6167 270° West 410 472 34,000  Level Toronto Center
06:52PM 46.6667 -85.7833 286° West 420 483 34,000  Level Toronto Center
06:53PM 46.7000 -85.9500 270° West 420 483 34,000  Level Toronto Center
06:54PM 46.7000 -86.1000 286° West 410 472 34,000  Level Toronto Center
06:55PM 46.7369 -86.2858 276° West 421 484 34,000  Level Minneapolis Center
06:56PM 46.7497 -86.4603 279° West 416 479 34,000  Level Minneapolis Center
06:57PM 46.7647 -86.6042 277° West 409 471 34,000  Level Minneapolis Center
06:58PM 46.7783 -86.7664 278° West 404 465 34,000  Level Minneapolis Center
06:59PM 46.7939 -86.9256 277° West 404 465 34,000  Level Minneapolis Center
07:00PM 46.8072 -87.0911 277° West 404 465 34,000  Level Minneapolis Center
07:01PM 46.8206 -87.2536 277° West 404 465 34,000  Level Minneapolis Center
07:02PM 46.8333 -87.4161 276° West 404 465 34,000  Level Minneapolis Center
07:03PM 46.8458 -87.5789 271° West 404 465 34,000  Level Minneapolis Center
07:05PM 46.8500 -87.9000 278° West 410 472 34,000  Level Toronto Center
07:06PM 46.8667 -88.0667 283° West 410 472 34,000  Level Toronto Center
07:07PM 46.8919 -88.2308 277° West 399 459 34,000  Level Minneapolis Center
07:08PM 46.9061 -88.4089 276° West 405 466 34,000  Level Minneapolis Center
07:09PM 46.9175 -88.5783 276° West 417 480 34,000  Level Minneapolis Center
07:10PM 46.9286 -88.7447 276° West 417 480 34,000  Level Minneapolis Center
07:11PM 46.9394 -88.9081 275° West 412 474 34,000  Level Minneapolis Center
07:12PM 46.9500 -89.0714 275° West 412 474 34,000  Level Minneapolis Center
07:13PM 46.9603 -89.2350 274° West 412 474 34,000  Level Minneapolis Center
07:14PM 46.9681 -89.3986 275° West 412 474 34,000  Level Minneapolis Center
07:15PM 46.9781 -89.5686 274° West 412 474 34,000  Level Minneapolis Center
07:16PM 46.9856 -89.7322 275° West 412 474 34,000  Level Minneapolis Center
07:17PM 46.9950 -89.8931 279° West 406 467 34,000  Level Minneapolis Center
07:18PM 47.0122 -90.0533 291° West 406 467 34,000  Level Minneapolis Center
07:19PM 47.0544 -90.2153 290° West 406 467 34,000  Level Minneapolis Center
07:20PM 47.0919 -90.3686 291° West 411 473 34,000  Level Minneapolis Center
07:21PM 47.1311 -90.5189 290° West 411 473 34,000 -60 Level Minneapolis Center
07:22PM 47.1706 -90.6786 289° West 411 473 33,900 -60 Descending Minneapolis Center
07:23PM 47.2075 -90.8328 290° West 406 467 33,900  Level Minneapolis Center
07:24PM 47.2464 -90.9928 290° West 406 467 34,000  Climbing Minneapolis Center
07:25PM 47.2850 -91.1503 289° West 406 467 33,900  Descending Minneapolis Center
07:26PM 47.3214 -91.3081 289° West 406 467 34,000  Climbing Minneapolis Center
07:27PM 47.3597 -91.4689 291° West 406 467 33,900 -60 Descending Minneapolis Center
07:28PM 47.3997 -91.6269 288° West 406 467 33,900  Level Minneapolis Center
07:29PM 47.4356 -91.7883 289° West 411 473 33,900  Level Minneapolis Center
07:30PM 47.4731 -91.9531 289° West 416 479 34,000  Climbing Minneapolis Center
07:31PM 47.5083 -92.1025 288° West 427 491 34,000  Level Minneapolis Center
07:32PM 47.5453 -92.2675 289° West 427 491 34,000  Level Minneapolis Center
07:33PM 47.5822 -92.4269 289° West 421 484 34,000 -60 Level Minneapolis Center
07:34PM 47.6189 -92.5894 289° West 421 484 33,900 -60 Descending Minneapolis Center
07:35PM 47.6575 -92.7519 288° West 421 484 33,900  Level Minneapolis Center
07:36PM 47.6917 -92.9119 288° West 416 479 34,000  Climbing Minneapolis Center
07:37PM 47.7278 -93.0750 288° West 416 479 34,000 -60 Level Minneapolis Center
07:38PM 47.7614 -93.2322 287° West 416 479 33,900 -60 Descending Minneapolis Center
07:39PM 47.7950 -93.3928 287° West 416 479 33,900 120 Level Minneapolis Center
07:40PM 47.8281 -93.5536 288° West 410 472 34,200 480 Climbing Minneapolis Center
07:41PM 47.8611 -93.7083 288° West 410 472 34,900 660 Climbing Minneapolis Center
07:42PM 47.8961 -93.8694 287° West 405 466 35,600 540 Climbing Minneapolis Center
07:43PM 47.9289 -94.0275 287° West 400 460 36,000 120 Climbing Minneapolis Center
07:44PM 47.9611 -94.1828 286° West 400 460 35,900 -60 Descending Minneapolis Center
07:45PM 47.9914 -94.3383 287° West 400 460 35,900  Level Minneapolis Center
07:46PM 48.0253 -94.5003 287° West 400 460 36,000  Climbing Minneapolis Center
07:47PM 48.0572 -94.6561 287° West 400 460 35,900 -60 Descending Minneapolis Center
07:48PM 48.0886 -94.8092 286° West 400 460 35,900  Level Minneapolis Center
07:49PM 48.1181 -94.9653 287° West 400 460 35,900  Level Minneapolis Center
07:50PM 48.1492 -95.1156 288° West 395 455 35,900  Level Minneapolis Center
07:51PM 48.1825 -95.2661 285° West 390 449 35,900  Level Minneapolis Center
07:52PM 48.2111 -95.4228 290° West 385 443 35,900  Level Minneapolis Center
07:53PM 48.2478 -95.5769 285° West 385 443 36,000  Climbing Minneapolis Center
07:54PM 48.2742 -95.7308 287° West 385 443 36,000  Level Minneapolis Center
07:55PM 48.3044 -95.8819 287° West 385 443 36,000  Level Minneapolis Center
07:56PM 48.3364 -96.0394 285° West 385 443 36,000  Level Minneapolis Center
07:57PM 48.3642 -96.1908 285° West 385 443 36,000  Level Minneapolis Center
07:58PM 48.3917 -96.3425 286° West 380 437 36,000  Level Minneapolis Center
07:59PM 48.4192 -96.4878 285° West 380 437 36,000 -360 Level Minneapolis Center
08:00PM 48.4444 -96.6300 285° West 369 425 35,300 -840 Descending Minneapolis Center
08:01PM 48.4733 -96.7917 286° West 373 429 34,400 -660 Descending Minneapolis Center
08:02PM 48.5003 -96.9375 285° West 363 418 34,000 -240 Descending Minneapolis Center
08:03PM 48.5269 -97.0867 284° West 363 418 34,000  Level Minneapolis Center
08:04PM 48.5514 -97.2358 285° West 363 418 34,000  Level Minneapolis Center
08:05PM 48.5758 -97.3789 284° West 363 418 34,000  Level Minneapolis Center
08:06PM 48.6000 -97.5250 285° West 358 412 34,000  Level Minneapolis Center
08:07PM 48.6258 -97.6717 284° West 358 412 34,000  Level Minneapolis Center
08:08PM 48.6497 -97.8183 285° West 358 412 34,000  Level Minneapolis Center
08:09PM 48.6756 -97.9619 286° West 358 412 34,000  Level Minneapolis Center
08:10PM 48.7031 -98.1061 283° West 363 418 34,000  Level Minneapolis Center
08:11PM 48.7261 -98.2561 283° West 363 418 34,000  Level Minneapolis Center
08:12PM 48.7492 -98.4031 284° West 363 418 34,000  Level Minneapolis Center
08:13PM 48.7742 -98.5536 284° West 363 418 34,000  Level Minneapolis Center
08:14PM 48.7989 -98.7011 284° West 363 418 34,000  Level Minneapolis Center
08:15PM 48.8233 -98.8489 285° West 363 418 34,000  Level Minneapolis Center
08:16PM 48.8494 -99.0000 270° West 363 418 34,000  Level Minneapolis Center
08:18PM 48.8500 -99.1500 293° West 370 426 34,000  Level Winnipeg Center
08:18PM 48.8950 -99.3083 273° West 369 425 34,000  Level Minneapolis Center
08:20PM 48.9000 -99.4667 289° West 370 426 34,000  Level Winnipeg Center
08:21PM 48.9333 -99.6167 289° West 370 426 34,000  Level Winnipeg Center
08:21PM 48.9672 -99.7631 285° West 374 430 34,000  Level Minneapolis Center
08:22PM 48.9925 -99.9119 281° West 374 430 34,000  Level Minneapolis Center
08:23PM 49.0128 -100.0700 272° West 380 437 34,000  Level Minneapolis Center
08:25PM 49.0167 -100.2333 289° West 370 426 34,000  Level Winnipeg Center
08:26PM 49.0500 -100.3833 270° West 370 426 34,000  Level Winnipeg Center
08:27PM 49.0500 -100.5333 287° West 370 426 34,000  Level Winnipeg Center
08:28PM 49.0833 -100.7000 280° West 370 426 34,000  Level Winnipeg Center
08:29PM 49.1000 -100.8500 280° West 370 426 34,000  Level Winnipeg Center
08:30PM 49.1167 -101.0000 279° West 360 414 34,000  Level Winnipeg Center
08:31PM 49.1333 -101.1667 294° West 360 414 34,000  Level Winnipeg Center
08:32PM 49.1667 -101.2833 279° West 370 426 34,000  Level Winnipeg Center
08:33PM 49.1833 -101.4500 280° West 360 414 34,000  Level Winnipeg Center
08:34PM 49.2000 -101.6000 289° West 370 426 34,000  Level Winnipeg Center
08:35PM 49.2333 -101.7500 270° West 370 426 34,000  Level Winnipeg Center
08:36PM 49.2333 -101.9167 289° West 370 426 34,000  Level Winnipeg Center
08:37PM 49.2667 -102.0667 279° West 360 414 34,000  Level Winnipeg Center
08:38PM 49.2833 -102.2333 280° West 370 426 34,000  Level Winnipeg Center
08:39PM 49.3000 -102.3833 280° West 360 414 34,000  Level Winnipeg Center
08:40PM 49.3167 -102.5333 279° West 370 426 34,000  Level Winnipeg Center
08:41PM 49.3333 -102.7000 291° West 370 426 34,000  Level Winnipeg Center
08:42PM 49.3667 -102.8333 279° West 370 426 34,000  Level Winnipeg Center
08:43PM 49.3833 -103.0000 281° West 370 426 34,000  Level Winnipeg Center
08:44PM 49.4000 -103.1333 278° West 370 426 34,000  Level Winnipeg Center
08:45PM 49.4167 -103.3167 281° West 370 426 34,100  Climbing Winnipeg Center
08:46PM 49.4333 -103.4500 279° West 370 426 34,000 -60 Descending Winnipeg Center
08:47PM 49.4500 -103.6167 280° West 370 426 34,000  Level Winnipeg Center
08:48PM 49.4667 -103.7667 280° West 360 414 34,000  Level Winnipeg Center
08:49PM 49.4833 -103.9167 279° West 370 426 34,000  Level Winnipeg Center
08:50PM 49.5000 -104.0833 280° West 370 426 34,000  Level Winnipeg Center
08:51PM 49.5167 -104.2333 279° West 370 426 34,000  Level Winnipeg Center
08:52PM 49.5333 -104.4000 280° West 370 426 34,000  Level Winnipeg Center
08:53PM 49.5500 -104.5500 279° West 380 437 34,000 240 Level Winnipeg Center
08:54PM 49.5667 -104.7167 270° West 380 437 34,500 600 Climbing Winnipeg Center
08:55PM 49.5667 -104.8667 287° West 370 426 35,200 660 Climbing Winnipeg Center
08:56PM 49.6000 -105.0333 280° West 370 426 35,900 360 Climbing Winnipeg Center
08:57PM 49.6167 -105.1833 270° West 370 426 36,000  Climbing Winnipeg Center
08:58PM 49.6167 -105.3500 289° West 380 437 36,000  Level Winnipeg Center
08:59PM 49.6500 -105.5000 278° West 380 437 36,000 -60 Level Winnipeg Center
09:00PM 49.6667 -105.6833 270° West 370 426 35,900  Descending Winnipeg Center
09:01PM 49.6667 -105.8500 280° West 380 437 36,000  Climbing Winnipeg Center
09:02PM 49.6833 -106.0000 279° West 380 437 36,000  Level Winnipeg Center
09:03PM 49.7000 -106.1667 280° West 390 449 36,000  Level Winnipeg Center
09:04PM 49.7167 -106.3167 279° West 390 449 36,000  Level Winnipeg Center
09:05PM 49.7333 -106.4833 270° West 380 437 36,000  Level Winnipeg Center
09:06PM 49.7333 -106.6333 277° West 380 437 36,000  Level Winnipeg Center
09:07PM 49.7500 -106.8333 291° West 370 426 36,000  Level Winnipeg Center
09:08PM 49.7833 -106.9667 270° West 370 426 36,000  Level Winnipeg Center
09:09PM 49.7833 -107.1500 281° West 370 426 36,000  Level Winnipeg Center
09:10PM 49.8000 -107.2833 270° West 380 437 36,000  Level Winnipeg Center
09:11PM 49.8000 -107.4333 278° West 380 437 36,000  Level Winnipeg Center
09:12PM 49.8167 -107.6167 279° West 380 437 36,000  Level Winnipeg Center
09:13PM 49.8333 -107.7833 270° West 380 437 36,000  Level Winnipeg Center
09:14PM 49.8333 -107.9333 279° West 370 426 36,000  Level Winnipeg Center
09:15PM 49.8500 -108.1000 281° West 370 426 36,000  Level Winnipeg Center
09:16PM 49.8667 -108.2333 270° West 370 426 36,000  Level Winnipeg Center
09:17PM 49.8667 -108.4167 279° West 370 426 36,000  Level Winnipeg Center
09:18PM 49.8833 -108.5833 270° West 380 437 36,000  Level Winnipeg Center
09:19PM 49.8833 -108.7333 279° West 380 437 36,000  Level Winnipeg Center
09:20PM 49.9000 -108.9000 279° West 380 437 36,000  Level Winnipeg Center
09:21PM 49.9167 -109.0667 270° West 380 437 36,000  Level Winnipeg Center
09:22PM 49.9167 -109.2167 279° West 380 437 36,000  Level Winnipeg Center
09:23PM 49.9333 -109.3833 280° West 380 437 36,000  Level Winnipeg Center
09:24PM 49.9500 -109.5333 270° West 380 437 36,000  Level Winnipeg Center
09:25PM 49.9500 -109.7000 278° West 380 437 36,000  Level Winnipeg Center
09:26PM 49.9667 -109.8833 279° West 380 437 36,000  Level Winnipeg Center
09:27PM 49.9833 -110.0500 270° West 380 437 36,000  Level Winnipeg Center
09:28PM 49.9833 -110.2000 270° West 380 437 36,000  Level Winnipeg Center
09:29PM 49.9833 -110.3667 262° West 380 437 36,000  Level Winnipeg Center
09:30PM 49.9667 -110.5500 270° West 380 437 36,000  Level Winnipeg Center
09:31PM 49.9667 -110.7000 270° West 380 437 36,000  Level Winnipeg Center
09:32PM 49.9667 -110.8667 270° West 380 437 36,000  Level Winnipeg Center
09:33PM 49.9667 -111.0500 270° West 380 437 36,000  Level Winnipeg Center
09:34PM 49.9667 -111.2000 270° West 380 437 36,000  Level Winnipeg Center
09:35PM 49.9667 -111.3500 261° West 380 437 36,000  Level Winnipeg Center
09:36PM 49.9500 -111.5167 270° West 380 437 36,000  Level Winnipeg Center
09:37PM 49.9500 -111.6667 270° West 380 437 36,000  Level Winnipeg Center
09:38PM 49.9500 -111.8500 261° West 380 437 36,000  Level Winnipeg Center
09:39PM 49.9333 -112.0167 280° West 380 437 36,000  Level Winnipeg Center
09:40PM 49.9500 -112.1667 270° West 380 437 36,000  Level Winnipeg Center
09:41PM 49.9500 -112.3333 270° West 380 437 36,000  Level Winnipeg Center
09:42PM 49.9500 -112.4833 262° West 380 437 36,000  Level Winnipeg Center
09:43PM 49.9333 -112.6667 360° North 380 437 36,000  Level Winnipeg Center
09:43PM 49.9333 -112.6667 270° West 380 437 36,000  Level Vancouver Center
09:44PM 49.9333 -112.8333 262° West 380 437 36,000  Level Vancouver Center
09:45PM 49.9167 -113.0167 270° West 380 437 36,000  Level Vancouver Center
09:46PM 49.9167 -113.1667 270° West 390 449 36,000  Level Vancouver Center
09:47PM 49.9167 -113.3333 270° West 390 449 36,000  Level Vancouver Center
09:48PM 49.9167 -113.4833 262° West 390 449 36,000  Level Vancouver Center
09:49PM 49.9000 -113.6667 261° West 390 449 36,000  Level Vancouver Center
09:50PM 49.8833 -113.8333 270° West 380 437 36,000  Level Vancouver Center
09:51PM 49.8833 -114.0167 270° West 390 449 36,000  Level Vancouver Center
09:52PM 49.8833 -114.1667 262° West 390 449 36,000  Level Vancouver Center
09:53PM 49.8667 -114.3500 270° West 400 460 36,000  Level Vancouver Center
09:54PM 49.8667 -114.5167 270° West 400 460 36,000  Level Vancouver Center
09:55PM 49.8667 -114.7000 262° West 410 472 36,000  Level Vancouver Center
09:56PM 49.8500 -114.8833 260° West 410 472 36,100  Climbing Vancouver Center
09:57PM 49.8333 -115.0333 270° West 410 472 36,000 -60 Descending Vancouver Center
09:58PM 49.8333 -115.2167 270° West 410 472 36,000  Level Vancouver Center
09:59PM 49.8333 -115.4000 270° West 410 472 36,000  Level Vancouver Center
10:00PM 49.8333 -115.5833 260° West 410 472 36,000  Level Vancouver Center
10:01PM 49.8167 -115.7333 270° West 400 460 36,000  Level Vancouver Center
10:02PM 49.8167 -115.9167 270° West 410 472 36,000  Level Vancouver Center
10:03PM 49.8167 -116.1000 261° West 400 460 36,000  Level Vancouver Center
10:04PM 49.8000 -116.2667 270° West 410 472 36,000  Level Vancouver Center
10:05PM 49.8000 -116.4500 270° West 410 472 36,000  Level Vancouver Center
10:06PM 49.8000 -116.6333 260° West 410 472 36,000  Level Vancouver Center
10:07PM 49.7833 -116.7833 278° West 400 460 36,000  Level Vancouver Center
10:08PM 49.8000 -116.9667 270° West 400 460 36,000  Level Vancouver Center
10:09PM 49.8000 -117.1167 262° West 400 460 36,000  Level Vancouver Center
10:10PM 49.7833 -117.3000 270° West 400 460 36,000  Level Vancouver Center
10:11PM 49.7833 -117.4667 262° West 400 460 36,000  Level Vancouver Center
10:12PM 49.7667 -117.6500 270° West 400 460 36,000  Level Vancouver Center
10:13PM 49.7667 -117.8167 261° West 400 460 36,000  Level Vancouver Center
10:14PM 49.7500 -117.9833 270° West 400 460 36,000  Level Vancouver Center
10:15PM 49.7500 -118.1667 260° West 400 460 36,000  Level Vancouver Center
10:16PM 49.7333 -118.3167 270° West 390 449 36,000  Level Vancouver Center
10:17PM 49.7333 -118.5000 260° West 390 449 36,000  Level Vancouver Center
10:18PM 49.7167 -118.6500 270° West 400 460 36,000  Level Vancouver Center
10:19PM 49.7167 -118.8333 261° West 400 460 36,000  Level Vancouver Center
10:20PM 49.7000 -119.0000 270° West 390 449 36,100 -60 Climbing Vancouver Center
10:21PM 49.7000 -119.1833 260° West 390 449 35,900 -120 Descending Vancouver Center
10:22PM 49.6833 -119.3333 270° West 390 449 35,900  Level Vancouver Center
10:23PM 49.6833 -119.5167 260° West 390 449 36,000  Climbing Vancouver Center
10:24PM 49.6667 -119.6667 262° West 390 449 36,000  Level Vancouver Center
10:25PM 49.6500 -119.8500 270° West 390 449 36,000  Level Vancouver Center
10:26PM 49.6500 -120.0167 261° West 390 449 36,000  Level Vancouver Center
10:27PM 49.6333 -120.1833 261° West 400 460 36,000  Level Vancouver Center
10:28PM 49.6167 -120.3500 270° West 400 460 36,100  Climbing Vancouver Center
10:29PM 49.6167 -120.5333 261° West 410 472 36,000 -60 Descending Vancouver Center
10:30PM 49.6000 -120.7000 262° West 400 460 36,000  Level Vancouver Center
10:31PM 49.5833 -120.8833 270° West 400 460 36,000  Level Vancouver Center
10:32PM 49.5833 -121.0500 262° West 400 460 36,000 -300 Level Vancouver Center
10:33PM 49.5667 -121.2333 260° West 400 460 35,400 -1,140 Descending Vancouver Center
10:34PM 49.5500 -121.3833 260° West 400 460 33,800 -2,100 Descending Vancouver Center
10:35PM 49.5333 -121.5333 270° West 390 449 31,200 -2,640 Descending Vancouver Center
10:36PM 49.5333 -121.7167 259° West 370 426 28,600 -2,460 Descending Vancouver Center
10:37PM 49.5167 -121.8500 260° West 350 403 26,300 -2,400 Descending Vancouver Center
10:38PM 49.5000 -122.0000 259° West 330 380 23,900 -2,280 Descending Vancouver Center
10:39PM 49.4833 -122.1333 232° Southwest 320 368 21,800 -1,920 Descending Vancouver Center
10:40PM 49.4333 -122.2333 232° Southwest 310 357 20,100 -1,740 Descending Vancouver Center
10:41PM 49.3833 -122.3333 237° Southwest 320 368 18,400 -1,620 Descending Vancouver Center
10:42PM 49.3333 -122.4500 243° Southwest 300 345 16,900 -1,560 Descending Vancouver Center
10:43PM 49.3000 -122.5500 243° Southwest 280 322 15,300 -1,500 Descending Vancouver Center
10:44PM 49.2667 -122.6500 256° West 270 311 13,900 -1,320 Descending Vancouver Center
10:45PM 49.2500 -122.7500 259° West 270 311 12,700 -1,260 Descending Vancouver Center
10:46PM 49.2333 -122.8833 270° West 250 288 11,400 -1,200 Descending Vancouver Center
10:47PM 49.2333 -122.9833 284° West 250 288 10,300 -1,620 Descending Vancouver Center
10:48PM 49.2500 -123.0833 270° West 260 299 8,200 -1,500 Descending Vancouver Center
10:49PM 49.2500 -123.1833 281° West 260 299 7,400 -1,620 Descending Vancouver Center
10:50PM 49.2667 -123.3167 284° West 260 299 5,000 -1,680 Descending Vancouver Center
10:51PM 49.2833 -123.4167 192° South 250 288 4,100 -900 Descending Vancouver Center
10:52PM 49.2333 -123.4333 136° Southeast 190 219 3,300 -780 Descending Vancouver Center
10:53PM 49.2000 -123.3833 90° East 150 173 2,600 -780 Descending Vancouver Center
10:54PM 49.2000 -123.3333 90° East 130 150 1,800 -840 Descending Vancouver Center